Time;durP1;ratioP1;P1;durP2;ratioP2;P2;SDS_P1;SDS_P2;PMS_P1;PMS_P2;Temp;Humidity;BMP_temperature;BMP_pressure;BME280_temperature;BME280_humidity;BME280_pressure;Samples;Min_cycle;Max_cycle;Signal;HPM_P1;HPM_P2
2023/08/30 00:00:41;;;;;;;252.17;127.07;;;;;;;;;;5073117;28;20455;-49
2023/08/30 00:03:07;;;;;;;251.17;131.57;;;;;;;;;;5073468;28;20419;-49
2023/08/30 00:05:33;;;;;;;248.47;125.57;;;;;;;;;;5073423;28;20440;-50
2023/08/30 00:07:59;;;;;;;251.00;126.90;;;;;;;;;;5073331;28;20425;-49
2023/08/30 00:10:25;;;;;;;246.37;124.63;;;;;;;;;;5073136;28;20826;-50
2023/08/30 00:12:51;;;;;;;253.00;131.40;;;;;;;;;;5073706;28;20912;-49
2023/08/30 00:15:17;;;;;;;248.67;128.73;;;;;;;;;;5073012;28;20388;-49
2023/08/30 00:17:43;;;;;;;252.53;132.80;;;;;;;;;;5073160;28;20876;-50
2023/08/30 00:20:09;;;;;;;246.27;123.37;;;;;;;;;;5072866;28;20970;-49
2023/08/30 00:22:35;;;;;;;249.53;126.07;;;;;;;;;;5073051;28;20424;-50
2023/08/30 00:25:02;;;;;;;252.27;127.67;;;;;;;;;;5072986;28;20398;-50
2023/08/30 00:27:28;;;;;;;233.97;108.27;;;;;;;;;;5073371;28;20826;-50
2023/08/30 00:29:54;;;;;;;240.20;107.90;;;;;;;;;;5072686;28;20437;-50
2023/08/30 00:32:21;;;;;;;229.50;103.10;;;;;;;;;;5072703;28;20413;-51
2023/08/30 00:34:47;;;;;;;232.97;107.03;;;;;;;;;;5072299;28;20401;-50
2023/08/30 00:37:13;;;;;;;231.27;103.30;;;;;;;;;;5072642;28;20459;-49
2023/08/30 00:39:39;;;;;;;233.23;105.93;;;;;;;;;;5072523;28;20401;-50
2023/08/30 00:42:07;;;;;;;232.63;105.37;;;;;;;;;;5072683;28;20593;-49
2023/08/30 00:44:33;;;;;;;234.37;106.87;;;;;;;;;;5069597;28;20468;-50
2023/08/30 00:46:59;;;;;;;231.07;103.80;;;;;;;;;;5072690;28;20494;-49
2023/08/30 00:49:26;;;;;;;235.07;107.20;;;;;;;;;;5072201;28;21027;-50
2023/08/30 00:51:52;;;;;;;231.47;104.60;;;;;;;;;;5075614;28;20916;-50
2023/08/30 00:54:18;;;;;;;233.80;107.67;;;;;;;;;;5072047;28;20433;-50
2023/08/30 00:56:44;;;;;;;229.97;104.93;;;;;;;;;;5072066;28;20457;-50
2023/08/30 00:59:10;;;;;;;229.73;105.33;;;;;;;;;;5072101;28;20467;-49
2023/08/30 01:01:38;;;;;;;227.10;101.10;;;;;;;;;;5071736;28;20436;-48
2023/08/30 01:04:04;;;;;;;227.17;102.13;;;;;;;;;;5070025;28;20424;-50
2023/08/30 01:06:30;;;;;;;232.90;108.37;;;;;;;;;;5071612;28;20974;-49
2023/08/30 01:08:56;;;;;;;233.27;112.47;;;;;;;;;;5071974;28;20440;-49
2023/08/30 01:11:29;;;;;;;233.03;110.33;;;;;;;;;;5072005;28;20419;-48
2023/08/30 01:14:07;;;;;;;229.67;105.10;;;;;;;;;;5072265;28;20489;-49
2023/08/30 01:16:33;;;;;;;230.20;105.50;;;;;;;;;;5072020;28;20849;-49
2023/08/30 01:19:01;;;;;;;229.50;105.23;;;;;;;;;;5072346;28;20412;-48
2023/08/30 01:21:39;;;;;;;228.40;101.50;;;;;;;;;;5071480;28;20423;-49
2023/08/30 01:24:07;;;;;;;230.77;104.90;;;;;;;;;;5071475;28;20936;-49
2023/08/30 01:26:37;;;;;;;225.57;100.80;;;;;;;;;;5071717;28;20413;-50
2023/08/30 01:29:03;;;;;;;227.93;102.47;;;;;;;;;;5071685;28;20412;-49
2023/08/30 01:31:33;;;;;;;229.17;102.57;;;;;;;;;;5071425;28;20406;-50
2023/08/30 01:33:59;;;;;;;227.40;103.87;;;;;;;;;;5071616;28;20424;-49
2023/08/30 01:36:25;;;;;;;231.90;106.00;;;;;;;;;;5071369;28;21041;-49
2023/08/30 01:38:52;;;;;;;231.83;106.07;;;;;;;;;;5074499;28;20413;-50
2023/08/30 01:41:18;;;;;;;232.13;109.07;;;;;;;;;;5074347;28;20556;-50
2023/08/30 01:43:44;;;;;;;230.50;105.43;;;;;;;;;;5071508;28;20428;-48
2023/08/30 01:46:11;;;;;;;230.17;103.07;;;;;;;;;;5071915;28;20493;-50
2023/08/30 01:48:37;;;;;;;231.10;106.53;;;;;;;;;;5071443;28;20408;-50
2023/08/30 01:51:04;;;;;;;235.17;108.33;;;;;;;;;;5070990;28;20439;-49
2023/08/30 01:53:31;;;;;;;229.83;105.07;;;;;;;;;;5071375;28;20516;-50
2023/08/30 01:55:57;;;;;;;230.20;103.33;;;;;;;;;;5071382;28;20790;-49
2023/08/30 01:58:23;;;;;;;227.67;102.77;;;;;;;;;;5071355;28;20415;-49
2023/08/30 02:00:49;;;;;;;230.53;104.90;;;;;;;;;;5071255;28;20435;-48
2023/08/30 02:03:15;;;;;;;228.67;101.87;;;;;;;;;;5071278;28;20433;-48
2023/08/30 02:05:47;;;;;;;231.13;105.90;;;;;;;;;;5071135;28;20404;-49
2023/08/30 02:08:17;;;;;;;227.70;105.50;;;;;;;;;;5071469;28;20473;-48
2023/08/30 02:10:52;;;;;;;227.83;102.17;;;;;;;;;;5063637;28;20419;-49
2023/08/30 02:13:20;;;;;;;228.57;107.80;;;;;;;;;;5071286;28;20463;-50
2023/08/30 02:15:47;;;;;;;229.17;105.53;;;;;;;;;;5071129;28;20452;-50
2023/08/30 02:18:13;;;;;;;228.67;104.97;;;;;;;;;;5071239;28;20780;-49
2023/08/30 02:20:39;;;;;;;228.77;109.67;;;;;;;;;;5070793;28;20888;-49
2023/08/30 02:23:05;;;;;;;228.13;108.57;;;;;;;;;;5071138;28;20931;-48
2023/08/30 02:25:31;;;;;;;224.80;103.37;;;;;;;;;;5071120;28;20449;-49
2023/08/30 02:27:57;;;;;;;229.43;108.00;;;;;;;;;;5071163;28;20427;-50
2023/08/30 02:30:22;;;;;;;229.07;112.67;;;;;;;;;;5070898;28;20422;-49
2023/08/30 02:32:48;;;;;;;229.27;112.57;;;;;;;;;;5070918;28;20435;-50
2023/08/30 02:35:14;;;;;;;229.23;112.70;;;;;;;;;;5070898;28;20409;-48
2023/08/30 02:37:41;;;;;;;227.67;111.67;;;;;;;;;;5071182;28;20471;-50
2023/08/30 02:40:08;;;;;;;230.60;113.50;;;;;;;;;;5070749;28;20486;-50
2023/08/30 02:42:33;;;;;;;230.67;114.47;;;;;;;;;;5071417;28;20862;-51
2023/08/30 02:44:59;;;;;;;232.20;116.17;;;;;;;;;;5070872;28;20459;-50
2023/08/30 02:47:25;;;;;;;231.50;114.57;;;;;;;;;;5071038;28;20897;-51
2023/08/30 02:49:52;;;;;;;238.00;115.93;;;;;;;;;;5071118;28;20408;-50
2023/08/30 02:52:18;;;;;;;232.47;112.60;;;;;;;;;;5071018;28;20465;-51
2023/08/30 02:54:44;;;;;;;232.60;117.27;;;;;;;;;;5071020;28;20499;-50
2023/08/30 02:57:10;;;;;;;236.67;121.50;;;;;;;;;;5072969;28;20556;-49
2023/08/30 02:59:36;;;;;;;234.00;115.57;;;;;;;;;;5074434;28;20435;-48
2023/08/30 03:02:02;;;;;;;229.50;112.47;;;;;;;;;;5074834;28;20396;-50
2023/08/30 03:04:28;;;;;;;234.13;118.23;;;;;;;;;;5074407;28;20423;-49
2023/08/30 03:06:54;;;;;;;234.23;120.47;;;;;;;;;;5074440;28;20405;-49
2023/08/30 03:09:20;;;;;;;238.17;125.70;;;;;;;;;;5074471;28;20918;-50
2023/08/30 03:11:46;;;;;;;235.57;118.53;;;;;;;;;;5074308;28;20974;-50
2023/08/30 03:14:12;;;;;;;244.37;125.47;;;;;;;;;;5074212;28;20795;-50
2023/08/30 03:16:38;;;;;;;241.97;128.47;;;;;;;;;;5074250;28;20863;-49
2023/08/30 03:19:04;;;;;;;238.20;121.17;;;;;;;;;;5074262;28;20408;-49
2023/08/30 03:21:30;;;;;;;237.47;119.57;;;;;;;;;;5073982;28;20397;-51
2023/08/30 03:23:56;;;;;;;238.40;124.37;;;;;;;;;;5074090;28;20944;-50
2023/08/30 03:26:22;;;;;;;236.03;121.37;;;;;;;;;;5074241;28;20888;-49
2023/08/30 03:28:48;;;;;;;235.93;114.63;;;;;;;;;;5074067;28;20454;-50
2023/08/30 03:31:14;;;;;;;240.67;121.63;;;;;;;;;;5073806;28;20441;-50
2023/08/30 03:33:43;;;;;;;236.97;119.27;;;;;;;;;;5073841;28;20424;-51
2023/08/30 03:36:13;;;;;;;237.07;117.47;;;;;;;;;;5074062;28;20444;-50
2023/08/30 03:38:39;;;;;;;241.60;125.50;;;;;;;;;;5073962;28;20432;-49
2023/08/30 03:41:05;;;;;;;235.63;114.47;;;;;;;;;;5073610;28;20806;-50
2023/08/30 03:43:32;;;;;;;233.93;114.90;;;;;;;;;;5074169;28;20459;-50
2023/08/30 03:45:58;;;;;;;235.07;113.00;;;;;;;;;;5073889;28;20510;-50
2023/08/30 03:48:24;;;;;;;236.87;114.73;;;;;;;;;;5073713;28;20408;-50
2023/08/30 03:50:50;;;;;;;238.90;116.77;;;;;;;;;;5073403;28;20798;-50
2023/08/30 03:53:16;;;;;;;240.07;115.57;;;;;;;;;;5073610;28;20844;-48
2023/08/30 03:55:42;;;;;;;237.20;114.47;;;;;;;;;;5073498;28;20823;-50
2023/08/30 03:58:08;;;;;;;238.33;113.93;;;;;;;;;;5073364;28;20417;-50
2023/08/30 04:00:37;;;;;;;241.03;115.57;;;;;;;;;;5070367;28;20480;-50
2023/08/30 04:03:04;;;;;;;236.57;111.50;;;;;;;;;;5079465;28;20427;-51
2023/08/30 04:05:34;;;;;;;239.23;122.17;;;;;;;;;;5073571;28;20491;-51
2023/08/30 04:08:00;;;;;;;240.47;123.17;;;;;;;;;;5066537;28;20488;-50
2023/08/30 04:10:26;;;;;;;243.20;125.67;;;;;;;;;;5072877;28;20781;-50
2023/08/30 04:12:52;;;;;;;242.07;119.60;;;;;;;;;;5071854;28;20452;-50
2023/08/30 04:15:18;;;;;;;244.93;124.97;;;;;;;;;;5073057;28;20443;-51
2023/08/30 04:17:44;;;;;;;249.57;130.07;;;;;;;;;;5072943;28;20464;-49
2023/08/30 04:20:13;;;;;;;243.47;122.37;;;;;;;;;;5071647;28;20893;-50
2023/08/30 04:22:39;;;;;;;248.67;140.53;;;;;;;;;;5071481;28;20859;-52
2023/08/30 04:25:07;;;;;;;252.10;139.73;;;;;;;;;;5072628;28;20782;-49
2023/08/30 04:27:33;;;;;;;246.60;130.90;;;;;;;;;;5071457;28;20416;-50
2023/08/30 04:29:59;;;;;;;248.47;129.37;;;;;;;;;;5067134;28;20416;-50
2023/08/30 04:32:25;;;;;;;244.47;130.47;;;;;;;;;;5072647;28;20469;-50
2023/08/30 04:34:51;;;;;;;246.67;130.90;;;;;;;;;;5072701;28;20409;-49
2023/08/30 04:37:17;;;;;;;244.20;128.07;;;;;;;;;;5072567;28;20510;-49
2023/08/30 04:39:43;;;;;;;245.87;134.10;;;;;;;;;;5072296;28;20473;-50
2023/08/30 04:42:09;;;;;;;248.73;134.90;;;;;;;;;;5072730;28;20420;-49
2023/08/30 04:44:36;;;;;;;253.50;135.40;;;;;;;;;;5072354;28;20420;-50
2023/08/30 04:47:02;;;;;;;251.73;130.93;;;;;;;;;;5072445;28;21004;-50
2023/08/30 04:49:30;;;;;;;247.67;128.67;;;;;;;;;;5071140;28;20409;-50
2023/08/30 04:51:56;;;;;;;246.20;127.87;;;;;;;;;;5071998;28;20424;-49
2023/08/30 04:54:22;;;;;;;248.57;126.50;;;;;;;;;;5071771;28;20514;-50
2023/08/30 04:56:48;;;;;;;249.73;131.27;;;;;;;;;;5079628;28;20976;-50
2023/08/30 04:59:14;;;;;;;254.50;136.23;;;;;;;;;;5072331;28;20453;-50
2023/08/30 05:01:42;;;;;;;248.57;129.00;;;;;;;;;;5070714;28;20503;-50
2023/08/30 05:04:08;;;;;;;251.67;131.17;;;;;;;;;;5072427;28;20982;-50
2023/08/30 05:06:34;;;;;;;248.97;128.57;;;;;;;;;;5072232;28;20405;-50
2023/08/30 05:09:00;;;;;;;252.73;132.63;;;;;;;;;;5072041;28;20767;-50
2023/08/30 05:11:26;;;;;;;246.77;127.07;;;;;;;;;;5071761;28;20408;-50
2023/08/30 05:13:52;;;;;;;247.50;125.47;;;;;;;;;;5072080;28;20436;-49
2023/08/30 05:16:17;;;;;;;249.50;128.40;;;;;;;;;;5071262;28;20505;-50
2023/08/30 05:18:44;;;;;;;252.20;132.80;;;;;;;;;;5071084;28;20896;-49
2023/08/30 05:21:09;;;;;;;247.13;127.73;;;;;;;;;;5071097;28;20491;-48
2023/08/30 05:23:35;;;;;;;252.00;132.47;;;;;;;;;;5071141;28;20511;-49
2023/08/30 05:26:02;;;;;;;258.97;142.07;;;;;;;;;;5071211;28;20408;-50
2023/08/30 05:28:28;;;;;;;254.73;138.73;;;;;;;;;;5071439;28;20449;-49
2023/08/30 05:30:54;;;;;;;259.50;140.80;;;;;;;;;;5071033;28;20404;-48
2023/08/30 05:33:20;;;;;;;255.30;142.90;;;;;;;;;;5071218;28;20436;-50
2023/08/30 05:35:45;;;;;;;257.10;142.63;;;;;;;;;;5071244;28;20469;-48
2023/08/30 05:38:11;;;;;;;258.87;143.63;;;;;;;;;;5071593;28;20491;-49
2023/08/30 05:40:42;;;;;;;256.97;144.00;;;;;;;;;;5071441;28;20401;-48
2023/08/30 05:43:08;;;;;;;253.17;139.20;;;;;;;;;;5071700;28;20833;-49
2023/08/30 05:45:34;;;;;;;256.13;140.40;;;;;;;;;;5071359;28;20571;-48
2023/08/30 05:48:00;;;;;;;255.40;139.20;;;;;;;;;;5071743;28;20407;-50
2023/08/30 05:50:26;;;;;;;254.97;138.57;;;;;;;;;;5071270;28;20428;-50
2023/08/30 05:52:52;;;;;;;255.47;139.17;;;;;;;;;;5072800;28;20482;-50
2023/08/30 05:55:18;;;;;;;262.00;147.57;;;;;;;;;;5067796;28;20418;-49
2023/08/30 05:57:45;;;;;;;259.17;148.10;;;;;;;;;;5071763;28;20982;-49
2023/08/30 06:00:12;;;;;;;255.43;139.37;;;;;;;;;;5069247;28;20432;-49
2023/08/30 06:02:40;;;;;;;262.00;144.70;;;;;;;;;;5063038;28;20424;-48
2023/08/30 06:05:06;;;;;;;265.43;148.90;;;;;;;;;;5069583;28;20401;-49
2023/08/30 06:07:32;;;;;;;255.17;145.60;;;;;;;;;;5065833;28;20464;-50
2023/08/30 06:09:58;;;;;;;257.60;141.87;;;;;;;;;;5069140;28;20421;-49
2023/08/30 06:12:25;;;;;;;258.37;143.77;;;;;;;;;;5071346;28;20437;-49
2023/08/30 06:14:52;;;;;;;256.17;140.10;;;;;;;;;;5071265;28;20413;-49
2023/08/30 06:17:21;;;;;;;258.30;144.67;;;;;;;;;;5071045;28;20606;-48
2023/08/30 06:19:47;;;;;;;260.40;144.60;;;;;;;;;;5077640;28;20805;-49
2023/08/30 06:22:13;;;;;;;258.23;143.70;;;;;;;;;;5071409;28;20513;-49
2023/08/30 06:24:39;;;;;;;259.00;145.37;;;;;;;;;;5071112;28;20406;-49
2023/08/30 06:27:05;;;;;;;255.97;143.40;;;;;;;;;;5071291;28;20400;-49
2023/08/30 06:29:31;;;;;;;264.33;157.53;;;;;;;;;;5071100;28;20412;-48
2023/08/30 06:31:58;;;;;;;264.23;155.03;;;;;;;;;;5072905;28;20413;-50
2023/08/30 06:34:24;;;;;;;260.20;148.37;;;;;;;;;;5074515;28;20466;-50
2023/08/30 06:36:51;;;;;;;255.70;142.00;;;;;;;;;;5074832;28;20460;-50
2023/08/30 06:39:18;;;;;;;260.67;148.13;;;;;;;;;;5074716;28;20902;-50
2023/08/30 06:41:44;;;;;;;274.07;164.77;;;;;;;;;;5074565;28;20405;-49
2023/08/30 06:44:10;;;;;;;279.27;173.87;;;;;;;;;;5074557;28;21049;-50
2023/08/30 06:46:37;;;;;;;276.03;171.97;;;;;;;;;;5074537;28;20407;-49
2023/08/30 06:49:03;;;;;;;281.90;182.33;;;;;;;;;;5074528;28;20405;-48
2023/08/30 06:51:29;;;;;;;285.77;187.80;;;;;;;;;;5074328;28;20576;-49
2023/08/30 06:54:00;;;;;;;290.50;194.47;;;;;;;;;;5074372;28;20472;-51
2023/08/30 06:56:26;;;;;;;285.00;183.27;;;;;;;;;;5072591;28;20540;-50
2023/08/30 06:58:54;;;;;;;294.47;194.30;;;;;;;;;;5074330;28;20527;-49
2023/08/30 07:01:20;;;;;;;297.27;205.27;;;;;;;;;;5074044;28;20404;-48
2023/08/30 07:03:45;;;;;;;295.63;198.50;;;;;;;;;;5074180;28;20466;-49
2023/08/30 07:06:11;;;;;;;290.77;202.17;;;;;;;;;;5074358;28;20412;-48
2023/08/30 07:08:38;;;;;;;291.87;208.23;;;;;;;;;;5074264;28;20405;-49
2023/08/30 07:11:04;;;;;;;280.80;183.97;;;;;;;;;;5074180;28;20406;-49
2023/08/30 07:13:30;;;;;;;285.30;194.63;;;;;;;;;;5074182;28;20423;-49
2023/08/30 07:15:56;;;;;;;286.77;194.73;;;;;;;;;;5074562;28;20547;-50
2023/08/30 07:18:22;;;;;;;282.47;188.53;;;;;;;;;;5074210;28;20434;-50
2023/08/30 07:20:48;;;;;;;272.07;176.90;;;;;;;;;;5074027;28;20716;-51
2023/08/30 07:23:13;;;;;;;284.57;198.90;;;;;;;;;;5074221;28;20417;-51
2023/08/30 07:25:39;;;;;;;283.77;202.97;;;;;;;;;;5074149;28;20416;-51
2023/08/30 07:28:06;;;;;;;302.83;230.87;;;;;;;;;;5074126;28;20419;-50
2023/08/30 07:30:32;;;;;;;304.73;220.93;;;;;;;;;;5073735;28;20404;-50
2023/08/30 07:32:58;;;;;;;289.97;215.87;;;;;;;;;;5073973;28;20449;-50
2023/08/30 07:35:24;;;;;;;287.50;206.47;;;;;;;;;;5073873;28;20485;-50
2023/08/30 07:37:50;;;;;;;293.47;222.83;;;;;;;;;;5070821;28;20964;-50
2023/08/30 07:40:16;;;;;;;297.63;221.53;;;;;;;;;;5073335;28;20417;-48
2023/08/30 07:42:42;;;;;;;326.10;268.00;;;;;;;;;;5073774;28;20515;-49
2023/08/30 07:45:09;;;;;;;325.87;259.77;;;;;;;;;;5074940;28;20526;-49
2023/08/30 07:47:35;;;;;;;313.27;247.93;;;;;;;;;;5073477;28;20420;-51
2023/08/30 07:50:01;;;;;;;307.20;235.30;;;;;;;;;;5073408;28;20409;-51
2023/08/30 07:52:27;;;;;;;320.70;261.83;;;;;;;;;;5073445;28;20429;-50
2023/08/30 07:54:53;;;;;;;330.30;276.07;;;;;;;;;;5073595;28;20772;-49
2023/08/30 07:57:20;;;;;;;352.57;311.63;;;;;;;;;;5073642;28;20888;-51
2023/08/30 07:59:46;;;;;;;344.23;290.57;;;;;;;;;;5072949;28;20954;-50
2023/08/30 08:02:13;;;;;;;379.27;337.97;;;;;;;;;;5073613;28;20405;-50
2023/08/30 08:04:39;;;;;;;367.57;327.00;;;;;;;;;;5073221;28;20407;-50
2023/08/30 08:07:05;;;;;;;361.57;321.60;;;;;;;;;;5073248;28;20495;-51
2023/08/30 08:09:32;;;;;;;356.67;313.90;;;;;;;;;;5073518;28;20849;-50
2023/08/30 08:11:58;;;;;;;385.73;344.13;;;;;;;;;;5072919;28;20400;-48
2023/08/30 08:14:24;;;;;;;372.63;321.93;;;;;;;;;;5072824;28;20428;-50
2023/08/30 08:16:50;;;;;;;354.77;308.97;;;;;;;;;;5073072;28;20463;-50
2023/08/30 08:19:16;;;;;;;368.50;328.23;;;;;;;;;;5072805;28;20402;-50
2023/08/30 08:21:42;;;;;;;356.07;315.00;;;;;;;;;;5072896;28;20797;-49
2023/08/30 08:24:08;;;;;;;383.93;342.63;;;;;;;;;;5072872;28;20424;-49
2023/08/30 08:26:34;;;;;;;348.30;309.70;;;;;;;;;;5072979;28;20420;-50
2023/08/30 08:29:00;;;;;;;347.57;308.53;;;;;;;;;;5072779;28;20491;-50
2023/08/30 08:31:27;;;;;;;336.17;296.30;;;;;;;;;;5072799;28;20413;-50
2023/08/30 08:34:09;;;;;;;351.03;312.63;;;;;;;;;;5071556;28;20506;-50
2023/08/30 08:36:35;;;;;;;393.37;352.17;;;;;;;;;;5072584;28;20443;-50
2023/08/30 08:39:04;;;;;;;373.73;333.93;;;;;;;;;;5072701;28;20492;-50
2023/08/30 08:41:34;;;;;;;389.47;348.47;;;;;;;;;;5071293;28;20405;-51
2023/08/30 08:44:00;;;;;;;403.17;360.53;;;;;;;;;;5072931;28;20477;-49
2023/08/30 08:46:26;;;;;;;398.43;357.30;;;;;;;;;;5072570;28;20408;-50
2023/08/30 08:48:53;;;;;;;367.33;328.17;;;;;;;;;;5072568;28;20436;-49
2023/08/30 08:51:20;;;;;;;395.93;355.13;;;;;;;;;;5074839;28;20474;-50
2023/08/30 08:53:46;;;;;;;385.07;345.33;;;;;;;;;;5091994;28;20431;-51
2023/08/30 08:56:13;;;;;;;391.07;350.93;;;;;;;;;;5092986;28;20501;-50
2023/08/30 08:58:39;;;;;;;387.83;347.47;;;;;;;;;;5092944;28;20777;-50
2023/08/30 09:01:05;;;;;;;382.83;343.27;;;;;;;;;;5092352;28;20917;-51
2023/08/30 09:03:34;;;;;;;372.70;333.87;;;;;;;;;;5092490;28;20943;-50
2023/08/30 09:06:01;;;;;;;361.70;323.83;;;;;;;;;;5092479;28;20775;-49
2023/08/30 09:08:29;;;;;;;352.00;314.70;;;;;;;;;;5092463;28;20487;-50
2023/08/30 09:10:55;;;;;;;337.63;301.17;;;;;;;;;;5092202;28;20408;-48
2023/08/30 09:13:22;;;;;;;359.57;321.77;;;;;;;;;;5092369;28;20785;-50
2023/08/30 09:15:49;;;;;;;361.40;322.70;;;;;;;;;;5092295;28;20410;-51
2023/08/30 09:18:18;;;;;;;361.10;323.10;;;;;;;;;;5092420;28;20740;-50
2023/08/30 09:20:44;;;;;;;333.63;297.37;;;;;;;;;;5092101;28;20400;-50
2023/08/30 09:23:20;;;;;;;327.63;291.70;;;;;;;;;;5092140;28;20425;-48
2023/08/30 09:25:46;;;;;;;319.50;282.07;;;;;;;;;;5092175;28;20401;-49
2023/08/30 09:28:12;;;;;;;310.80;266.30;;;;;;;;;;5092316;28;20403;-48
2023/08/30 09:30:40;;;;;;;306.27;266.70;;;;;;;;;;5091935;28;20403;-50
2023/08/30 09:33:06;;;;;;;310.93;268.83;;;;;;;;;;5092193;28;20416;-50
2023/08/30 09:35:32;;;;;;;317.67;282.40;;;;;;;;;;5092121;28;20956;-49
2023/08/30 09:37:58;;;;;;;315.50;276.97;;;;;;;;;;5092170;28;20461;-50
2023/08/30 09:40:24;;;;;;;313.10;277.17;;;;;;;;;;5091742;28;20395;-51
2023/08/30 09:42:50;;;;;;;306.63;259.97;;;;;;;;;;5091962;28;20485;-51
2023/08/30 09:45:19;;;;;;;300.20;256.90;;;;;;;;;;5091973;28;20419;-49
2023/08/30 09:47:48;;;;;;;298.03;244.23;;;;;;;;;;5092044;28;20812;-50
2023/08/30 09:50:17;;;;;;;305.60;271.77;;;;;;;;;;5091602;28;20404;-49
2023/08/30 09:52:43;;;;;;;313.70;279.53;;;;;;;;;;5077404;28;20434;-49
2023/08/30 09:55:09;;;;;;;305.03;271.57;;;;;;;;;;5071847;28;20470;-50
2023/08/30 09:57:36;;;;;;;309.90;275.20;;;;;;;;;;5071614;28;21018;-50
2023/08/30 10:00:03;;;;;;;306.60;272.13;;;;;;;;;;5071466;28;20417;-50
2023/08/30 10:02:29;;;;;;;299.17;249.70;;;;;;;;;;5071546;28;20932;-49
2023/08/30 10:04:56;;;;;;;301.27;248.90;;;;;;;;;;5071681;28;21264;-49
2023/08/30 10:07:22;;;;;;;296.37;237.07;;;;;;;;;;5075971;28;20405;-49
2023/08/30 10:09:48;;;;;;;305.03;247.67;;;;;;;;;;5075656;28;20400;-50
2023/08/30 10:12:15;;;;;;;298.70;251.17;;;;;;;;;;5075521;28;20415;-49
2023/08/30 10:14:41;;;;;;;298.23;254.47;;;;;;;;;;5075460;28;20404;-51
2023/08/30 10:17:10;;;;;;;295.03;236.33;;;;;;;;;;5075139;28;20447;-50
2023/08/30 10:19:37;;;;;;;290.17;230.07;;;;;;;;;;5075311;28;20748;-49
2023/08/30 10:22:04;;;;;;;288.57;220.07;;;;;;;;;;5075382;28;20483;-50
2023/08/30 10:24:33;;;;;;;283.97;206.73;;;;;;;;;;5075140;28;20923;-50
2023/08/30 10:27:00;;;;;;;286.23;206.37;;;;;;;;;;5075381;28;20399;-50
2023/08/30 10:29:26;;;;;;;288.47;218.90;;;;;;;;;;5075274;28;20423;-50
2023/08/30 10:31:52;;;;;;;287.53;206.47;;;;;;;;;;5074898;28;20399;-49
2023/08/30 10:34:21;;;;;;;276.40;182.03;;;;;;;;;;5075437;28;20946;-50
2023/08/30 10:37:00;;;;;;;276.00;182.80;;;;;;;;;;5075115;28;20542;-51
2023/08/30 10:39:39;;;;;;;282.30;190.17;;;;;;;;;;5074994;28;20888;-49
2023/08/30 10:42:08;;;;;;;278.60;183.70;;;;;;;;;;5075050;28;20445;-50
2023/08/30 10:44:34;;;;;;;278.70;177.33;;;;;;;;;;5074969;28;20439;-50
2023/08/30 10:47:04;;;;;;;278.97;185.10;;;;;;;;;;5075051;28;20499;-50
2023/08/30 10:49:29;;;;;;;281.47;180.70;;;;;;;;;;5074839;28;20481;-49
2023/08/30 10:52:00;;;;;;;277.47;176.50;;;;;;;;;;5082758;28;20835;-49
2023/08/30 10:54:37;;;;;;;277.37;179.47;;;;;;;;;;5095001;28;20889;-49
2023/08/30 10:57:03;;;;;;;281.80;184.47;;;;;;;;;;5095088;28;20973;-49
2023/08/30 10:59:29;;;;;;;278.63;180.53;;;;;;;;;;5095147;28;20402;-50
2023/08/30 11:01:58;;;;;;;277.57;176.33;;;;;;;;;;5095030;28;20401;-49
2023/08/30 11:04:24;;;;;;;260.93;147.17;;;;;;;;;;5095014;28;20499;-50
2023/08/30 11:06:51;;;;;;;262.73;151.57;;;;;;;;;;5095084;28;20395;-49
2023/08/30 11:09:18;;;;;;;261.80;147.20;;;;;;;;;;5094815;28;20868;-49
2023/08/30 11:11:45;;;;;;;263.77;151.53;;;;;;;;;;5094907;28;20501;-48
2023/08/30 11:14:11;;;;;;;267.73;160.53;;;;;;;;;;5094815;28;20476;-49
2023/08/30 11:16:37;;;;;;;262.80;149.37;;;;;;;;;;5094562;28;20654;-49
2023/08/30 11:19:04;;;;;;;265.13;151.03;;;;;;;;;;5094573;28;20624;-51
2023/08/30 11:21:34;;;;;;;266.57;157.07;;;;;;;;;;5094528;28;20856;-49
2023/08/30 11:24:00;;;;;;;273.93;169.17;;;;;;;;;;5094386;28;20435;-49
2023/08/30 11:26:26;;;;;;;268.33;161.83;;;;;;;;;;5094605;28;20523;-49
2023/08/30 11:28:52;;;;;;;267.77;159.63;;;;;;;;;;5094840;28;20451;-49
2023/08/30 11:31:19;;;;;;;265.23;160.03;;;;;;;;;;5078903;28;20431;-50
2023/08/30 11:33:54;;;;;;;264.67;158.70;;;;;;;;;;5066940;28;20858;-50
2023/08/30 11:36:22;;;;;;;272.47;172.20;;;;;;;;;;5071268;28;20474;-50
2023/08/30 11:38:48;;;;;;;267.57;162.30;;;;;;;;;;5069516;28;20426;-49
2023/08/30 11:41:14;;;;;;;273.97;182.80;;;;;;;;;;5066111;28;20430;-50
2023/08/30 11:43:40;;;;;;;288.57;195.97;;;;;;;;;;5074154;28;20434;-50
2023/08/30 11:46:06;;;;;;;280.90;181.40;;;;;;;;;;5069061;28;20434;-50
2023/08/30 11:48:33;;;;;;;275.57;165.53;;;;;;;;;;5066935;28;20440;-49
2023/08/30 11:50:59;;;;;;;276.70;164.17;;;;;;;;;;5065608;28;20447;-48
2023/08/30 11:53:26;;;;;;;275.30;166.40;;;;;;;;;;5074827;28;20438;-50
2023/08/30 11:55:52;;;;;;;275.40;160.53;;;;;;;;;;5073589;28;20897;-50
2023/08/30 11:58:18;;;;;;;275.20;166.27;;;;;;;;;;5073757;28;20481;-50
2023/08/30 12:00:45;;;;;;;279.50;172.03;;;;;;;;;;5065254;28;20426;-50
2023/08/30 12:03:15;;;;;;;264.97;152.50;;;;;;;;;;5065897;28;20513;-51
2023/08/30 12:05:47;;;;;;;274.87;157.47;;;;;;;;;;5071230;28;20421;-50
2023/08/30 12:08:20;;;;;;;264.73;151.73;;;;;;;;;;5064823;28;20562;-49
2023/08/30 12:10:48;;;;;;;271.87;157.90;;;;;;;;;;5063841;28;20850;-49
2023/08/30 12:13:21;;;;;;;264.87;159.03;;;;;;;;;;5071763;28;20433;-50
2023/08/30 12:15:48;;;;;;;269.97;162.77;;;;;;;;;;5069310;28;20884;-50
2023/08/30 12:18:14;;;;;;;271.93;168.97;;;;;;;;;;5072939;28;20893;-50
2023/08/30 12:21:02;;;;;;;285.73;181.20;;;;;;;;;;5065330;28;20416;-50
2023/08/30 12:23:29;;;;;;;291.47;183.03;;;;;;;;;;5068206;28;20952;-50
2023/08/30 12:25:59;;;;;;;288.47;187.37;;;;;;;;;;5069153;28;20425;-48
2023/08/30 12:28:30;;;;;;;290.07;193.73;;;;;;;;;;5054838;28;20427;-50
2023/08/30 12:30:58;;;;;;;290.83;192.70;;;;;;;;;;5057197;28;20430;-48
2023/08/30 12:33:28;;;;;;;287.23;192.80;;;;;;;;;;5053802;28;20542;-47
2023/08/30 12:35:54;;;;;;;282.90;186.33;;;;;;;;;;5064198;28;20798;-50
2023/08/30 12:38:20;;;;;;;282.00;181.73;;;;;;;;;;5059557;28;20909;-50
2023/08/30 12:40:51;;;;;;;282.63;177.57;;;;;;;;;;5059730;28;20425;-50
2023/08/30 12:43:17;;;;;;;283.57;181.13;;;;;;;;;;5054998;28;20455;-49
2023/08/30 12:45:44;;;;;;;282.00;177.20;;;;;;;;;;5053309;28;20423;-50
2023/08/30 12:48:10;;;;;;;283.03;177.73;;;;;;;;;;5056486;28;20436;-49
2023/08/30 12:50:37;;;;;;;281.63;179.53;;;;;;;;;;5052772;28;20452;-49
2023/08/30 12:53:06;;;;;;;283.43;183.20;;;;;;;;;;5053350;28;20848;-51
2023/08/30 12:55:34;;;;;;;291.27;186.57;;;;;;;;;;5058431;28;20416;-50
2023/08/30 12:58:00;;;;;;;297.03;192.77;;;;;;;;;;5060128;28;20507;-50
2023/08/30 13:00:26;;;;;;;293.97;193.13;;;;;;;;;;5073224;28;20410;-50
2023/08/30 13:02:52;;;;;;;293.57;194.10;;;;;;;;;;5066048;28;20497;-51
2023/08/30 13:05:18;;;;;;;295.77;193.00;;;;;;;;;;5053380;28;20451;-50
2023/08/30 13:07:44;;;;;;;299.33;197.90;;;;;;;;;;5052251;28;20490;-50
2023/08/30 13:10:11;;;;;;;299.20;195.50;;;;;;;;;;5051716;28;20406;-49
2023/08/30 13:12:37;;;;;;;292.90;194.50;;;;;;;;;;5052074;28;20910;-49
2023/08/30 13:15:04;;;;;;;291.90;185.37;;;;;;;;;;5061611;28;20930;-48
2023/08/30 13:17:29;;;;;;;289.60;187.40;;;;;;;;;;5072053;28;20969;-49
2023/08/30 13:19:57;;;;;;;291.20;185.63;;;;;;;;;;5071817;28;20483;-49
2023/08/30 13:22:23;;;;;;;289.17;189.77;;;;;;;;;;5066802;28;20431;-49
2023/08/30 13:24:49;;;;;;;286.90;188.53;;;;;;;;;;5051522;28;20432;-49
2023/08/30 13:27:15;;;;;;;290.93;193.60;;;;;;;;;;5051919;28;20800;-50
2023/08/30 13:29:41;;;;;;;298.87;203.70;;;;;;;;;;5053079;28;20440;-50
2023/08/30 13:32:07;;;;;;;288.33;195.70;;;;;;;;;;5071821;28;20402;-50
2023/08/30 13:34:33;;;;;;;292.83;207.60;;;;;;;;;;5068630;28;20542;-49
2023/08/30 13:36:59;;;;;;;290.23;199.57;;;;;;;;;;5062676;28;20951;-49
2023/08/30 13:39:25;;;;;;;295.83;201.63;;;;;;;;;;5060427;28;20928;-48
2023/08/30 13:41:51;;;;;;;286.77;189.67;;;;;;;;;;5058487;28;20422;-48
2023/08/30 13:44:18;;;;;;;290.07;202.43;;;;;;;;;;5055823;28;20453;-50
2023/08/30 13:46:47;;;;;;;295.47;206.33;;;;;;;;;;5065397;28;20439;-47
2023/08/30 13:49:13;;;;;;;286.07;186.50;;;;;;;;;;5071615;28;20409;-48